Terminal Aerodrome Forecast
Issued by NWS Quad Cities IA IL

Home | Current Version | Previous Version | Text Only | Print | Product List | Glossary On
Versions: 1 2 3 4 5 6 7 8 9 10 11 12 13 14 15 16 17 18 19 20 21
000
FTUS43 KDVN 242300
TAFMLI
TAF
KMLI 242320Z 2500/2524 18006KT 6SM HZ BKN040
      TEMPO 2500/2503 3SM -DZ OVC020
     FM250300 21007KT 4SM BR SCT005 BKN035
     FM250500 23004KT 1SM BR OVC004
     FM250700 26004KT 1/2SM FG VV003
     FM251400 29006KT 6SM BR SCT200=

USA.gov is the U.S. government's official web portal to all federal, state and local government web resources and services.